Johnsonville, South Dakota
Current Conditions -  °F | °C
As of 1:54 PM on Thursday 23 Oct 2014 (Local Time) from KCNB Reporting Station
Clear Clear  
Wind Chill: 70°   Ceiling: Unl
Heat Index: 70°   Visibility: 10mi
Dew Point: 35°   Wind: 12mph
Humidity: 28%   Direction: 260°W
Pressure: 29.97"   Gusts: 17mph
Location:  44.5872°N, 96.7638°W
Report Text: KCNB 231854Z AUTO 26010G15KT 10SM CLR 21/02 A2997 RMK AO2 T02100017
Loading
Personal Weather Stations






























Interactive Weather Map
Tropical Storm Tracking
New forecast layout! Learn more

10-Day Weather Forecast

Advertisements
Track Severe Weather on mobile